Time;durP1;ratioP1;P1;durP2;ratioP2;P2;SDS_P1;SDS_P2;PMS_P1;PMS_P2;Temp;Humidity;BMP_temperature;BMP_pressure;BME280_temperature;BME280_humidity;BME280_pressure;Samples;Min_cycle;Max_cycle;Signal;HPM_P1;HPM_P2
2022/12/05 00:01:29;;;;;;;23.95;7.75;;;;;;;-8.58;54.87;102527.63;6140124;23;20021;-92
2022/12/05 00:04:08;;;;;;;21.13;7.38;;;;;;;-8.59;54.88;102517.16;6164829;23;20027;-91
2022/12/05 00:06:40;;;;;;;19.02;7.03;;;;;;;-8.80;54.65;102474.44;6164737;23;20021;-87
2022/12/05 00:09:09;;;;;;;17.77;7.53;;;;;;;-8.73;54.60;102493.41;6152124;23;20127;-92
2022/12/05 00:11:39;;;;;;;16.63;7.25;;;;;;;-8.55;54.45;102513.31;6114320;23;20026;-89
2022/12/05 00:14:13;;;;;;;24.80;7.43;;;;;;;-8.13;54.48;102581.00;6090654;23;20034;-87
2022/12/05 00:16:41;;;;;;;28.38;8.25;;;;;;;-8.58;54.47;102492.31;6090332;23;20022;-88
2022/12/05 00:19:14;;;;;;;23.90;8.10;;;;;;;-8.29;54.35;102532.63;6040668;23;20372;-93
2022/12/05 00:21:43;;;;;;;20.70;7.80;;;;;;;-8.52;54.21;102502.47;6108245;23;20018;-93
2022/12/05 00:24:13;;;;;;;14.82;7.22;;;;;;;-8.33;54.12;102534.66;6030244;23;20456;-92
2022/12/05 00:26:39;;;;;;;19.90;7.43;;;;;;;-8.03;53.92;102567.91;6125952;23;20577;-89
2022/12/05 00:29:05;;;;;;;17.65;6.93;;;;;;;-8.72;54.11;102466.78;6105447;23;20101;-87
2022/12/05 00:31:32;;;;;;;;;;;;;;;-8.09;54.34;102568.34;6082208;23;20029;-88
2022/12/05 00:34:01;;;;;;;16.07;6.30;;;;;;;-8.09;54.17;102569.19;6105029;23;20311;-88
2022/12/05 00:36:31;;;;;;;18.42;6.45;;;;;;;-8.29;54.25;102560.00;6082574;23;20025;-93
2022/12/05 00:39:17;;;;;;;18.75;7.68;;;;;;;-8.84;55.09;102499.47;6058193;23;20032;-91
2022/12/05 00:41:43;;;;;;;17.48;6.60;;;;;;;-8.60;55.13;102526.06;6055966;23;20033;-89
2022/12/05 00:44:12;;;;;;;19.23;6.40;;;;;;;-8.65;54.92;102529.03;6081537;23;20126;-89
2022/12/05 00:46:38;;;;;;;15.25;6.35;;;;;;;-8.90;55.19;102487.50;6066317;23;20030;-87
2022/12/05 00:49:06;;;;;;;16.33;6.60;;;;;;;-9.03;55.03;102489.31;6139264;23;20460;-92
2022/12/05 00:51:38;;;;;;;16.90;7.07;;;;;;;-8.71;55.29;102537.41;6118146;23;20013;-91
2022/12/05 00:54:10;;;;;;;18.08;7.22;;;;;;;-8.94;54.97;102475.41;6120638;23;20025;-89
2022/12/05 00:56:36;;;;;;;19.85;7.72;;;;;;;-8.97;54.86;102473.00;6189764;23;20070;-90
2022/12/05 00:59:04;;;;;;;19.88;7.22;;;;;;;-9.14;54.57;102462.69;6187666;23;20518;-87
2022/12/05 01:01:35;;;;;;;;;;;;;;;-8.44;54.72;102550.56;6164511;23;20064;-93
2022/12/05 01:07:00;;;;;;;18.08;7.15;;;;;;;-9.15;54.58;102461.84;6145572;23;20059;-88
2022/12/05 01:09:27;;;;;;;18.73;7.00;;;;;;;-9.06;54.84;102477.13;6142256;23;20447;-88
2022/12/05 01:11:53;;;;;;;20.85;7.00;;;;;;;-8.54;54.38;102546.88;6195414;23;20095;-90
2022/12/05 01:14:22;;;;;;;19.95;7.40;;;;;;;-8.45;54.23;102550.66;6143829;23;20013;-88
2022/12/05 01:16:50;;;;;;;18.95;7.90;;;;;;;-8.80;54.04;102479.75;6144817;23;20020;-94
2022/12/05 01:19:27;;;;;;;19.67;8.38;;;;;;;-9.14;54.26;102439.69;6144383;23;20069;-88
2022/12/05 01:21:57;;;;;;;16.90;7.88;;;;;;;-9.18;54.32;102424.97;6124944;23;20021;-88
2022/12/05 01:24:32;;;;;;;16.98;7.40;;;;;;;-8.99;54.52;102462.47;6194789;23;20021;-87
2022/12/05 01:26:58;;;;;;;25.15;7.82;;;;;;;-8.54;54.55;102530.94;6170635;23;20021;-91
2022/12/05 01:29:25;;;;;;;21.17;7.40;;;;;;;-9.09;54.30;102429.63;6145720;23;20021;-88
2022/12/05 01:31:52;;;;;;;20.08;7.85;;;;;;;-8.48;54.32;102525.16;6174292;23;20028;-87
2022/12/05 01:34:18;;;;;;;16.77;6.85;;;;;;;-8.75;54.47;102474.94;6148270;23;20081;-89
2022/12/05 01:37:09;;;;;;;16.08;6.68;;;;;;;-8.47;54.30;102508.31;6139935;23;20021;-88
2022/12/05 01:39:48;;;;;;;16.95;6.80;;;;;;;-8.78;54.04;102470.72;6189353;23;20355;-88
2022/12/05 01:42:18;;;;;;;17.40;6.97;;;;;;;-9.02;54.24;102417.63;6116825;23;20044;-88
2022/12/05 01:44:53;;;;;;;20.08;7.15;;;;;;;-8.49;54.15;102504.91;6166134;23;20025;-92
2022/12/05 01:47:21;;;;;;;15.38;7.22;;;;;;;-9.03;53.61;102408.00;6164969;23;20096;-90
2022/12/05 01:49:56;;;;;;;15.07;6.57;;;;;;;-8.87;53.70;102434.25;6140788;23;20021;-93
2022/12/05 01:52:25;;;;;;;16.42;6.78;;;;;;;-8.84;53.88;102451.72;6144999;23;20037;-90
2022/12/05 01:58:26;;;;;;;15.18;6.55;;;;;;;-8.96;53.67;102426.97;6171900;23;20137;-87
2022/12/05 02:00:52;;;;;;;16.88;6.43;;;;;;;-8.66;53.57;102473.47;6165518;23;20021;-90
2022/12/05 02:03:22;;;;;;;14.13;6.45;;;;;;;-9.02;53.59;102409.69;6166767;23;20043;-88
2022/12/05 02:05:57;;;;;;;18.33;7.65;;;;;;;-8.64;53.77;102475.06;6142516;23;20067;-92
2022/12/05 02:08:27;;;;;;;18.65;6.80;;;;;;;-9.01;53.76;102418.47;6164529;23;20359;-93
2022/12/05 02:10:56;;;;;;;22.55;6.97;;;;;;;-8.65;53.81;102475.16;6139047;23;20025;-92
2022/12/05 02:14:00;;;;;;;22.60;7.20;;;;;;;-8.61;54.11;102492.53;6138863;23;20017;-91
2022/12/05 02:16:38;;;;;;;17.17;6.47;;;;;;;-8.65;54.36;102496.34;6163812;23;20068;-89
2022/12/05 02:19:28;;;;;;;16.35;6.88;;;;;;;-8.61;54.42;102498.69;6141861;23;20017;-90
2022/12/05 02:22:41;;;;;;;15.63;6.85;;;;;;;-8.63;54.00;102495.31;6168102;23;20020;-89
2022/12/05 02:25:44;;;;;;;19.67;6.88;;;;;;;-8.69;54.07;102495.72;6121172;23;20025;-88
2022/12/05 02:28:40;;;;;;;14.88;6.10;;;;;;;-8.85;54.16;102497.78;6168431;23;20037;-91
2022/12/05 02:31:31;;;;;;;15.52;6.30;;;;;;;-9.36;54.62;102416.50;6191227;23;20474;-92
2022/12/05 02:34:38;;;;;;;16.67;6.70;;;;;;;-9.38;54.92;102444.91;6141735;23;20477;-89
2022/12/05 02:37:45;;;;;;;15.82;6.60;;;;;;;-9.00;54.66;102483.81;6197791;23;20424;-88
2022/12/05 02:40:36;;;;;;;21.13;6.80;;;;;;;-9.04;54.95;102482.31;6174826;23;20017;-87
2022/12/05 02:43:21;;;;;;;19.30;7.50;;;;;;;-8.92;54.50;102470.84;6179879;23;20021;-86
2022/12/05 02:46:25;;;;;;;18.55;7.82;;;;;;;-8.94;54.60;102471.91;6144612;23;20020;-88
2022/12/05 02:48:58;;;;;;;19.00;7.15;;;;;;;-9.17;54.42;102433.75;6193930;23;20470;-91
2022/12/05 02:51:29;;;;;;;16.88;6.97;;;;;;;-9.60;55.23;102421.72;6164687;23;20362;-89
2022/12/05 02:54:12;;;;;;;18.85;7.30;;;;;;;-9.94;54.83;102344.59;6164907;23;20025;-89
2022/12/05 02:56:42;;;;;;;17.98;7.07;;;;;;;-9.30;55.12;102439.94;6166484;23;20104;-91
2022/12/05 02:59:16;;;;;;;14.73;6.85;;;;;;;-9.28;54.62;102421.28;6192010;23;20017;-89
2022/12/05 03:01:56;;;;;;;25.33;7.53;;;;;;;-9.43;54.68;102399.34;6140981;23;20040;-89
2022/12/05 03:04:25;;;;;;;15.80;7.10;;;;;;;-9.32;54.45;102410.03;6165234;23;20017;-91
2022/12/05 03:06:56;;;;;;;16.42;7.07;;;;;;;-9.72;54.24;102353.72;6166524;23;20021;-92
2022/12/05 03:09:55;;;;;;;17.90;7.55;;;;;;;-9.02;54.29;102448.59;6136079;23;20107;-90
2022/12/05 03:12:50;;;;;;;18.02;7.93;;;;;;;-9.00;54.38;102454.66;6158199;23;20032;-93
2022/12/05 03:15:25;;;;;;;21.45;8.65;;;;;;;-9.29;54.19;102411.63;6138063;23;20083;-91
2022/12/05 03:17:58;;;;;;;14.02;6.93;;;;;;;-9.66;54.07;102339.22;6195041;23;20072;-92
2022/12/05 03:20:47;;;;;;;21.63;7.85;;;;;;;-8.98;54.18;102450.91;6193899;23;20024;-90
2022/12/05 03:23:41;;;;;;;20.55;7.82;;;;;;;-9.41;54.30;102368.28;6160824;23;20021;-91
2022/12/05 03:26:26;;;;;;;19.80;8.23;;;;;;;-8.94;53.80;102448.88;6135198;23;20008;-91
2022/12/05 03:29:34;;;;;;;20.00;8.23;;;;;;;-9.06;54.17;102447.97;6170607;23;20020;-92
2022/12/05 03:32:49;;;;;;;18.73;8.73;;;;;;;-9.04;54.56;102451.38;6197554;23;20099;-92
2022/12/05 03:35:50;;;;;;;16.63;7.50;;;;;;;-9.81;54.21;102314.63;6195251;23;20106;-89
2022/12/05 03:39:00;;;;;;;18.58;6.80;;;;;;;-8.93;53.90;102447.09;6209308;23;20017;-91
2022/12/05 03:41:59;;;;;;;19.70;6.43;;;;;;;-8.96;53.84;102437.56;6144815;23;20095;-91
2022/12/05 03:45:18;;;;;;;19.27;7.28;;;;;;;-9.02;53.95;102438.84;6178619;23;20110;-91
2022/12/05 03:48:36;;;;;;;19.05;6.53;;;;;;;-8.96;53.54;102428.75;5975450;23;20019;-90
2022/12/05 03:51:39;;;;;;;15.20;6.57;;;;;;;-8.99;53.54;102435.97;6019443;23;20094;-92
2022/12/05 03:54:31;;;;;;;15.80;6.43;;;;;;;-9.08;53.18;102409.28;6047887;23;20189;-86
2022/12/05 03:57:24;;;;;;;19.30;6.78;;;;;;;-9.16;53.42;102393.91;6050144;23;20089;-91
2022/12/05 04:00:04;;;;;;;18.10;6.95;;;;;;;-9.38;53.23;102352.19;6065471;23;20047;-90
2022/12/05 04:02:44;;;;;;;21.02;8.32;;;;;;;-9.32;53.37;102362.34;6077381;23;20074;-92
2022/12/05 04:06:02;;;;;;;20.05;8.73;;;;;;;-9.57;53.32;102326.19;6076714;23;20026;-86
2022/12/05 04:08:35;;;;;;;19.55;8.30;;;;;;;-8.95;53.16;102406.59;6021482;23;20019;-93
2022/12/05 04:14:11;;;;;;;;;;;;;;;-8.98;53.49;102415.59;6079891;23;20030;-90
2022/12/05 04:22:33;;;;;;;25.17;6.93;;;;;;;-9.58;53.32;102328.91;6074661;23;20024;-89
2022/12/05 04:28:21;;;;;;;24.90;8.45;;;;;;;-9.33;53.67;102365.97;6189230;23;20031;-90
2022/12/05 04:31:43;;;;;;;22.05;8.98;;;;;;;-9.11;53.60;102396.22;6144079;23;20048;-88
2022/12/05 04:34:14;;;;;;;28.98;10.27;;;;;;;-9.37;53.53;102353.03;6136098;23;20013;-90
2022/12/05 04:37:01;;;;;;;26.80;10.20;;;;;;;-9.03;53.46;102386.78;6145713;23;20027;-92
2022/12/05 04:39:49;;;;;;;51.72;13.55;;;;;;;-8.95;53.12;102390.69;6163210;23;20076;-88
2022/12/05 04:42:24;;;;;;;59.03;16.33;;;;;;;-9.38;52.95;102333.66;6135974;23;20017;-89
2022/12/05 04:44:59;;;;;;;70.72;18.67;;;;;;;-9.52;53.15;102321.38;6192858;23;20013;-89
2022/12/05 04:47:31;;;;;;;74.05;20.98;;;;;;;-9.47;52.81;102313.97;6107547;23;20033;-88
2022/12/05 04:49:59;;;;;;;73.10;18.83;;;;;;;-9.46;52.76;102288.34;6135358;23;20468;-88
2022/12/05 04:52:48;;;;;;;63.45;18.73;;;;;;;-9.49;52.95;102280.59;6133941;23;20029;-95
2022/12/05 04:58:26;;;;;;;50.83;14.95;;;;;;;-8.85;52.44;102368.69;6060113;23;20068;-90
2022/12/05 05:01:31;;;;;;;53.60;13.47;;;;;;;-8.75;52.26;102371.53;6056679;23;20022;-92
2022/12/05 05:04:18;;;;;;;42.35;14.70;;;;;;;-8.82;52.27;102368.47;6075749;23;20106;-86
2022/12/05 05:06:58;;;;;;;40.13;14.25;;;;;;;-9.06;52.43;102336.66;6078577;23;20109;-94
2022/12/05 05:09:45;;;;;;;38.35;12.93;;;;;;;-8.84;52.70;102374.84;6085518;23;20018;-88
2022/12/05 05:12:42;;;;;;;43.20;13.38;;;;;;;-8.79;52.55;102365.63;6078937;23;20026;-87
2022/12/05 05:15:09;;;;;;;36.50;13.32;;;;;;;-9.25;52.53;102310.63;6056900;23;20021;-88
2022/12/05 05:17:35;;;;;;;41.20;13.35;;;;;;;-9.35;52.25;102312.25;6085527;23;20045;-88
2022/12/05 05:22:54;;;;;;;29.33;10.30;;;;;;;-8.99;52.22;102382.97;6087419;23;20018;-89
2022/12/05 05:25:21;;;;;;;30.98;10.68;;;;;;;-9.07;52.24;102347.34;6125151;23;20022;-87
2022/12/05 05:27:52;;;;;;;23.33;9.45;;;;;;;-9.24;52.20;102322.06;6137713;23;20167;-89
2022/12/05 05:30:20;;;;;;;21.38;9.50;;;;;;;-9.37;52.33;102300.94;6111636;23;20017;-87
2022/12/05 05:32:47;;;;;;;29.60;9.80;;;;;;;-9.08;52.07;102349.16;6133933;23;20097;-93
2022/12/05 05:35:15;;;;;;;32.75;10.75;;;;;;;-8.99;51.88;102372.34;6156026;23;20099;-87
2022/12/05 05:37:50;;;;;;;30.45;10.68;;;;;;;-9.12;51.98;102342.38;6198666;23;20035;-88
2022/12/05 05:40:24;;;;;;;32.03;10.35;;;;;;;-9.79;52.04;102247.41;6175882;23;20020;-93
2022/12/05 05:42:50;;;;;;;34.85;12.13;;;;;;;-9.09;52.32;102375.78;6203035;23;20017;-93
2022/12/05 05:45:25;;;;;;;36.15;13.82;;;;;;;-9.52;52.46;102300.19;6150875;23;20013;-87
2022/12/05 05:48:17;;;;;;;41.80;14.15;;;;;;;-9.06;52.48;102363.16;6200654;23;20029;-92
2022/12/05 05:50:46;;;;;;;46.35;14.48;;;;;;;-9.53;51.93;102289.72;6197653;23;20074;-90
2022/12/05 05:53:34;;;;;;;29.45;11.05;;;;;;;-9.13;52.10;102358.41;6195938;23;20020;-89
2022/12/05 05:56:13;;;;;;;32.20;11.20;;;;;;;-9.47;52.25;102303.38;6222424;23;20024;-89
2022/12/05 05:59:04;;;;;;;27.10;9.68;;;;;;;-9.07;52.21;102353.53;6205081;23;20017;-91
2022/12/05 06:02:10;;;;;;;28.83;10.73;;;;;;;-9.12;52.27;102360.09;6197017;23;20024;-88
2022/12/05 06:04:36;;;;;;;20.37;8.70;;;;;;;-9.32;52.36;102301.44;6206531;23;20051;-89
2022/12/05 06:07:13;;;;;;;;;;;;;;;-8.91;51.89;102353.22;6188541;23;20263;-87
2022/12/05 06:09:59;;;;;;;14.30;6.95;;;;;;;-9.24;51.95;102287.63;6178534;23;19920;-90
2022/12/05 06:13:15;;;;;;;21.60;7.63;;;;;;;-8.76;51.97;102352.13;6052567;23;20034;-91
2022/12/05 06:16:46;;;;;;;18.42;7.70;;;;;;;-8.66;52.08;102352.31;6045601;23;20023;-92
2022/12/05 06:20:19;;;;;;;21.95;8.73;;;;;;;-8.58;51.14;102351.72;6020787;23;20024;-93
2022/12/05 06:22:51;;;;;;;22.55;8.10;;;;;;;-8.82;51.50;102306.66;6025709;23;20061;-89
2022/12/05 06:25:22;;;;;;;22.38;6.85;;;;;;;-9.14;51.42;102248.91;5980514;23;20022;-88
2022/12/05 06:28:44;;;;;;;27.05;8.95;;;;;;;-8.45;51.29;102341.06;5997097;23;20110;-88
2022/12/05 06:31:30;;;;;;;21.23;8.48;;;;;;;-8.54;51.84;102329.34;6046193;23;20027;-88
2022/12/05 06:34:08;;;;;;;25.13;9.50;;;;;;;-8.71;51.20;102269.56;6020580;23;20023;-90
2022/12/05 06:36:35;;;;;;;25.27;9.38;;;;;;;-8.46;51.37;102308.38;6000234;23;20095;-92
2022/12/05 06:39:13;;;;;;;28.80;8.77;;;;;;;-8.44;51.44;102311.78;5998376;23;20019;-92
2022/12/05 06:42:00;;;;;;;23.17;10.18;;;;;;;-8.61;52.60;102305.09;6026434;23;20025;-89
2022/12/05 06:44:29;;;;;;;23.70;9.80;;;;;;;-8.72;52.97;102278.50;6022186;23;20114;-91
2022/12/05 06:47:44;;;;;;;31.65;10.60;;;;;;;-8.47;53.52;102346.50;5970763;23;20027;-89
2022/12/05 06:50:13;;;;;;;28.30;11.77;;;;;;;-8.62;54.55;102318.44;6129215;23;20028;-85
2022/12/05 06:52:39;;;;;;;26.73;10.57;;;;;;;-8.95;54.66;102276.72;6131823;23;20523;-88
2022/12/05 06:55:40;;;;;;;26.13;10.80;;;;;;;-8.38;54.76;102337.81;6137712;23;20045;-88
2022/12/05 06:58:06;;;;;;;30.33;10.40;;;;;;;-8.38;54.73;102298.03;6161412;23;20021;-88
2022/12/05 07:01:38;;;;;;;21.25;8.35;;;;;;;-8.13;54.35;102335.97;6133821;23;20028;-89
2022/12/05 07:04:33;;;;;;;24.42;9.35;;;;;;;-8.09;54.69;102332.94;6170655;23;20056;-86
2022/12/05 07:07:13;;;;;;;19.70;8.55;;;;;;;-8.16;54.44;102293.72;6133860;23;20047;-87
2022/12/05 07:09:47;;;;;;;19.00;8.32;;;;;;;-8.15;54.22;102285.63;6156147;23;20020;-87
2022/12/05 07:12:18;;;;;;;19.13;7.75;;;;;;;-8.14;54.30;102270.56;6178417;23;20024;-89
2022/12/05 07:14:50;;;;;;;17.25;7.88;;;;;;;-7.83;54.34;102312.34;6213655;23;20088;-88
2022/12/05 07:17:28;;;;;;;20.58;8.48;;;;;;;-8.07;54.66;102247.91;6189260;23;20047;-89
2022/12/05 07:20:00;;;;;;;18.80;7.55;;;;;;;-7.70;54.15;102319.38;6163875;23;20016;-87
2022/12/05 07:22:35;;;;;;;17.45;7.97;;;;;;;-8.19;53.87;102217.00;6218744;23;20066;-87
2022/12/05 07:25:02;;;;;;;21.58;8.02;;;;;;;-8.01;54.38;102265.13;6184919;23;20020;-86
2022/12/05 07:27:33;;;;;;;27.20;7.95;;;;;;;-7.77;54.25;102296.94;6187063;23;20021;-86
2022/12/05 07:30:20;;;;;;;21.00;7.90;;;;;;;-8.05;54.50;102268.03;6141008;23;20508;-91
2022/12/05 07:32:46;;;;;;;23.55;8.65;;;;;;;-7.78;54.87;102273.97;6219211;23;20094;-88
2022/12/05 07:36:19;;;;;;;17.27;7.77;;;;;;;-7.67;54.61;102305.84;6204055;23;20060;-85
2022/12/05 07:38:57;;;;;;;15.93;8.18;;;;;;;-7.66;55.00;102316.34;6176943;23;20016;-88
2022/12/05 07:42:13;;;;;;;23.08;8.85;;;;;;;-8.22;54.73;102230.50;6207468;23;20063;-89
2022/12/05 07:44:45;;;;;;;22.08;9.18;;;;;;;-7.61;54.33;102308.88;6221866;23;20368;-87
2022/12/05 07:47:11;;;;;;;23.98;8.73;;;;;;;-7.80;54.30;102250.19;6199601;23;20021;-92
2022/12/05 07:49:38;;;;;;;18.20;7.63;;;;;;;-7.83;53.79;102230.03;6197724;23;20028;-87
2022/12/05 07:52:28;;;;;;;19.13;8.43;;;;;;;-7.30;53.43;102300.28;6200750;23;20016;-88
2022/12/05 07:55:13;;;;;;;23.92;9.18;;;;;;;-7.94;53.44;102189.38;6195469;23;20026;-88
2022/12/05 07:57:39;;;;;;;21.15;9.25;;;;;;;-7.56;53.21;102228.81;6190227;23;20039;-89
2022/12/05 08:00:06;;;;;;;27.05;8.85;;;;;;;-7.66;53.11;102203.94;6191931;23;20023;-88
2022/12/05 08:02:41;;;;;;;20.67;8.80;;;;;;;-7.35;52.88;102237.72;6172621;23;20020;-86
2022/12/05 08:05:35;;;;;;;16.63;7.22;;;;;;;-7.35;53.11;102260.78;6179745;23;20082;-88
2022/12/05 08:08:01;;;;;;;18.00;7.75;;;;;;;-7.51;53.29;102250.56;6146677;23;20108;-88
2022/12/05 08:11:29;;;;;;;24.65;8.65;;;;;;;-7.45;53.54;102281.94;6176249;23;20032;-89
2022/12/05 08:13:57;;;;;;;20.35;8.25;;;;;;;-7.91;53.61;102231.59;6124695;23;20030;-88
2022/12/05 08:16:29;;;;;;;26.88;9.63;;;;;;;-7.94;54.09;102231.88;6165654;23;20022;-86
2022/12/05 08:19:06;;;;;;;26.92;9.48;;;;;;;-7.97;53.95;102238.25;6191685;23;20033;-89
2022/12/05 08:21:58;;;;;;;31.05;10.80;;;;;;;-7.57;54.37;102274.94;6144313;23;20018;-90
2022/12/05 08:24:24;;;;;;;32.08;10.95;;;;;;;-7.52;54.11;102248.00;6140794;23;20075;-89
2022/12/05 08:26:51;;;;;;;23.20;10.13;;;;;;;-7.39;54.09;102270.81;6166202;23;20170;-88
2022/12/05 08:32:08;;;;;;;19.52;8.75;;;;;;;-7.22;53.78;102268.59;6191066;23;20079;-89
2022/12/05 08:34:35;;;;;;;19.88;7.93;;;;;;;-7.58;53.71;102214.81;6141378;23;20028;-90
2022/12/05 08:37:07;;;;;;;16.75;8.50;;;;;;;-7.49;53.95;102210.56;6142499;23;20021;-91
2022/12/05 08:39:36;;;;;;;20.50;7.55;;;;;;;-7.56;54.21;102242.09;6166692;23;20084;-91
2022/12/05 08:42:35;;;;;;;18.23;7.57;;;;;;;-7.33;54.29;102246.41;6151004;23;20075;-89
2022/12/05 08:45:02;;;;;;;22.13;8.15;;;;;;;-7.44;54.11;102200.41;6115092;23;20044;-89
2022/12/05 08:47:29;;;;;;;26.00;9.48;;;;;;;-7.40;53.86;102188.56;6191375;23;20005;-90
2022/12/05 08:50:25;;;;;;;22.60;8.68;;;;;;;-7.31;53.45;102185.16;6163930;23;20037;-92
2022/12/05 08:52:52;;;;;;;21.42;9.50;;;;;;;-7.42;53.55;102164.75;6164253;23;20432;-87
2022/12/05 08:55:18;;;;;;;32.97;9.77;;;;;;;-7.27;53.35;102177.78;6156977;23;20103;-88
2022/12/05 08:57:58;;;;;;;20.48;8.38;;;;;;;-7.40;53.24;102172.63;6144549;23;20017;-90
2022/12/05 09:00:24;;;;;;;16.10;6.95;;;;;;;-7.23;53.23;102185.38;6189094;23;20021;-88
2022/12/05 09:02:52;;;;;;;20.63;8.05;;;;;;;-6.74;53.21;102229.16;6148422;23;20095;-89
2022/12/05 09:05:34;;;;;;;23.83;9.02;;;;;;;-6.91;52.74;102158.75;6126387;23;20018;-89
2022/12/05 09:08:25;;;;;;;23.17;8.25;;;;;;;-6.63;52.67;102226.44;6164870;23;20024;-92
2022/12/05 09:10:52;;;;;;;24.52;8.80;;;;;;;-6.71;52.97;102223.59;6192738;23;20098;-88
2022/12/05 09:13:47;;;;;;;27.13;9.52;;;;;;;-6.51;52.86;102216.59;6213640;23;20023;-89
2022/12/05 09:16:24;;;;;;;20.30;8.65;;;;;;;-6.32;52.82;102215.88;6145911;23;20067;-91
2022/12/05 09:18:53;;;;;;;23.08;8.95;;;;;;;-6.77;52.73;102148.78;6196025;23;20043;-89
2022/12/05 09:21:32;;;;;;;20.52;9.23;;;;;;;-6.32;52.71;102175.09;6195010;23;20068;-87
2022/12/05 09:24:12;;;;;;;16.90;7.70;;;;;;;-6.55;52.32;102140.66;6197210;23;20021;-88
2022/12/05 09:26:40;;;;;;;19.38;7.40;;;;;;;-5.97;52.19;102201.31;6206310;23;20028;-90
2022/12/05 09:29:08;;;;;;;17.33;7.32;;;;;;;-6.20;52.00;102142.91;6191207;23;20016;-91
2022/12/05 09:31:35;;;;;;;23.30;7.50;;;;;;;-6.08;51.71;102116.22;6208868;23;20043;-87
2022/12/05 09:34:04;;;;;;;18.98;7.97;;;;;;;-5.82;51.65;102148.50;6174397;23;20071;-90
2022/12/05 09:36:31;;;;;;;22.65;8.05;;;;;;;-5.42;51.41;102164.44;6150496;23;20032;-88
2022/12/05 09:39:04;;;;;;;29.52;9.20;;;;;;;-5.36;50.73;102128.38;6223905;23;20027;-90
2022/12/05 09:42:08;;;;;;;22.98;8.32;;;;;;;-5.02;50.13;102180.31;6149869;23;20107;-89
2022/12/05 09:45:03;;;;;;;26.63;9.52;;;;;;;-5.24;50.28;102137.91;6224128;23;20024;-88
2022/12/05 09:48:04;;;;;;;26.77;9.40;;;;;;;-5.32;49.71;102111.13;6169558;23;20024;-91
2022/12/05 09:50:51;;;;;;;24.27;9.73;;;;;;;-4.92;50.40;102177.66;6223018;23;20016;-88
2022/12/05 09:53:27;;;;;;;22.98;8.73;;;;;;;-4.82;50.29;102166.97;6196114;23;20446;-88
2022/12/05 09:55:56;;;;;;;22.27;9.55;;;;;;;-4.84;49.98;102163.59;6194933;23;20036;-87
2022/12/05 09:58:28;;;;;;;27.70;9.25;;;;;;;-4.64;50.30;102157.25;6172502;23;20027;-89
2022/12/05 10:01:09;;;;;;;24.10;9.30;;;;;;;-4.63;49.36;102153.63;6149459;23;20454;-90
2022/12/05 10:08:15;;;;;;;24.77;8.13;;;;;;;-5.02;49.35;102097.63;6087064;23;20493;-88
2022/12/05 10:11:09;;;;;;;21.30;8.75;;;;;;;-4.62;48.95;102147.28;6003688;23;20023;-89
2022/12/05 10:14:16;;;;;;;25.10;8.77;;;;;;;-4.57;49.47;102145.03;6049728;23;20023;-89
2022/12/05 10:16:53;;;;;;;22.23;8.10;;;;;;;-4.85;48.97;102097.88;5995822;23;20020;-94
2022/12/05 10:22:21;;;;;;;23.00;7.95;;;;;;;-4.73;49.10;102131.44;5974500;24;20048;-88
2022/12/05 10:24:54;;;;;;;18.52;6.95;;;;;;;-4.82;49.25;102086.94;5993969;24;20024;-87
2022/12/05 10:27:30;;;;;;;19.98;7.80;;;;;;;-4.65;49.48;102126.22;5995116;24;20020;-89
2022/12/05 10:30:05;;;;;;;17.90;7.55;;;;;;;-4.94;48.98;102078.22;5994863;23;20024;-87
2022/12/05 10:32:57;;;;;;;19.63;7.53;;;;;;;-4.51;49.25;102135.59;5998550;24;20004;-87
2022/12/05 10:35:37;;;;;;;18.17;7.88;;;;;;;-4.69;49.22;102103.47;5993317;24;20059;-89
2022/12/05 10:38:27;;;;;;;17.80;7.68;;;;;;;-4.28;48.28;102122.72;5990713;24;20466;-87
2022/12/05 10:41:00;;;;;;;19.27;7.55;;;;;;;-5.11;48.28;102029.13;6015323;23;20019;-91
2022/12/05 10:46:39;;;;;;;22.33;9.15;;;;;;;-4.27;47.82;102106.56;6014422;23;20024;-86
2022/12/05 10:49:12;;;;;;;19.08;7.03;;;;;;;-4.75;47.50;102091.53;5996572;23;19999;-90
2022/12/05 10:51:48;;;;;;;21.17;7.10;;;;;;;-4.83;48.12;102094.09;6017619;23;20030;-91
2022/12/05 10:54:28;;;;;;;20.10;7.80;;;;;;;-4.87;48.07;102073.16;6021158;23;20015;-89
2022/12/05 10:57:32;;;;;;;17.27;7.90;;;;;;;-4.87;48.37;102075.81;5993607;23;20023;-89
2022/12/05 11:00:16;;;;;;;22.23;8.18;;;;;;;-5.21;48.99;102057.63;6054832;23;20030;-89
2022/12/05 11:02:49;;;;;;;18.30;7.40;;;;;;;-4.55;48.64;102118.19;6052975;23;20027;-89
2022/12/05 11:05:28;;;;;;;21.60;8.20;;;;;;;-4.58;48.50;102119.31;6070665;23;20050;-90
2022/12/05 11:07:58;;;;;;;18.95;8.25;;;;;;;-4.37;48.33;102086.22;6025445;23;20020;-88
2022/12/05 11:10:39;;;;;;;20.20;8.88;;;;;;;-4.35;48.20;102092.25;6072032;23;20018;-89
2022/12/05 11:13:26;;;;;;;25.25;7.70;;;;;;;-4.30;48.06;102093.50;6071569;23;20031;-93
2022/12/05 11:16:50;;;;;;;19.55;7.05;;;;;;;-4.32;47.63;102106.16;6026090;23;20365;-88
2022/12/05 11:19:24;;;;;;;19.98;7.43;;;;;;;-4.24;48.24;102097.41;6047435;23;20018;-87
2022/12/05 11:21:52;;;;;;;15.77;6.90;;;;;;;-4.35;47.92;102084.25;6049470;23;20018;-87
2022/12/05 11:24:43;;;;;;;21.67;7.10;;;;;;;-4.87;47.83;102025.13;6192509;23;20056;-89
2022/12/05 11:30:31;;;;;;;23.70;8.98;;;;;;;-4.86;48.09;102058.84;6080562;23;20248;-90
2022/12/05 11:33:17;;;;;;;21.60;7.53;;;;;;;-4.66;48.33;102091.66;6106984;23;20105;-88
2022/12/05 11:35:46;;;;;;;24.83;9.75;;;;;;;-4.73;48.47;102070.91;6106200;23;20014;-89
2022/12/05 11:38:21;;;;;;;27.60;10.32;;;;;;;-4.98;48.84;102040.31;6104238;23;20028;-93
2022/12/05 11:41:26;;;;;;;25.73;9.57;;;;;;;-4.67;48.45;102082.78;6107316;23;20148;-88
2022/12/05 11:44:28;;;;;;;19.02;8.10;;;;;;;-4.77;48.76;102081.97;6129066;23;20022;-89
2022/12/05 11:47:21;;;;;;;22.55;8.63;;;;;;;-4.90;49.08;102057.44;6082734;23;20018;-87
2022/12/05 11:49:55;;;;;;;21.63;8.68;;;;;;;-4.52;48.66;102075.19;6135041;23;20018;-89
2022/12/05 11:52:22;;;;;;;22.85;8.32;;;;;;;-4.66;48.70;102071.16;6132796;23;20029;-88
2022/12/05 11:58:17;;;;;;;19.95;8.73;;;;;;;-4.62;48.65;102059.19;6077780;23;20033;-92
2022/12/05 12:01:22;;;;;;;21.08;8.90;;;;;;;-4.57;49.17;102074.75;6032302;23;20019;-88
2022/12/05 12:04:39;;;;;;;17.73;7.82;;;;;;;-4.44;48.71;102061.91;6024880;23;20023;-89
2022/12/05 12:07:19;;;;;;;22.25;7.85;;;;;;;-4.51;48.47;102039.47;6013900;23;20018;-87
2022/12/05 12:10:07;;;;;;;18.45;8.38;;;;;;;-4.33;48.79;102059.06;6099855;23;20056;-88
2022/12/05 12:13:15;;;;;;;18.45;8.13;;;;;;;-4.38;48.39;102047.16;6075112;23;20025;-88
2022/12/05 12:16:17;;;;;;;21.20;8.02;;;;;;;-4.28;48.84;102047.94;6074232;23;20470;-88
2022/12/05 12:18:51;;;;;;;23.00;8.05;;;;;;;-4.25;48.80;102039.63;6098796;23;20018;-94
2022/12/05 12:22:09;;;;;;;21.77;7.85;;;;;;;-4.74;49.02;101983.78;6025393;23;20026;-89
2022/12/05 12:25:31;;;;;;;17.08;7.43;;;;;;;-4.62;49.25;102015.66;6073064;23;20113;-87
2022/12/05 12:28:07;;;;;;;19.83;7.45;;;;;;;-4.44;49.31;102042.41;5992583;23;20028;-87
2022/12/05 12:30:44;;;;;;;24.67;8.35;;;;;;;-4.69;49.77;102022.56;5990577;23;20118;-90
2022/12/05 12:33:47;;;;;;;26.45;7.85;;;;;;;-4.73;49.98;102027.34;5997421;23;20020;-88
2022/12/05 12:37:03;;;;;;;27.50;7.40;;;;;;;-4.73;50.14;102014.84;6051712;23;20002;-89
2022/12/05 12:40:12;;;;;;;25.77;6.80;;;;;;;-4.37;49.97;102014.97;6042733;23;20063;-89
2022/12/05 12:43:20;;;;;;;23.95;8.00;;;;;;;-4.37;49.27;102001.63;5996635;23;20074;-93
2022/12/05 12:46:53;;;;;;;19.40;7.30;;;;;;;-4.23;48.86;102013.63;6024426;23;20023;-87
2022/12/05 12:49:43;;;;;;;20.92;7.60;;;;;;;-4.11;49.10;102009.72;6027521;23;20090;-89
2022/12/05 12:52:24;;;;;;;25.42;8.70;;;;;;;-4.11;49.04;102000.88;6027388;23;20030;-86
2022/12/05 12:55:28;;;;;;;20.67;8.98;;;;;;;-4.31;49.74;101992.16;6054302;23;20023;-89
2022/12/05 12:58:42;;;;;;;29.63;9.98;;;;;;;-4.11;49.69;101995.53;6055849;23;20078;-89
2022/12/05 13:02:07;;;;;;;25.05;9.63;;;;;;;-4.06;49.57;101994.09;6022787;23;20026;-87
2022/12/05 13:05:05;;;;;;;25.70;8.98;;;;;;;-4.02;49.51;102000.00;6106735;23;20119;-88
2022/12/05 13:08:24;;;;;;;27.65;8.20;;;;;;;-4.67;49.75;101898.63;6105150;23;20029;-90
2022/12/05 13:10:58;;;;;;;24.10;8.77;;;;;;;-4.51;49.34;101924.69;6094831;23;20019;-92